createdAt,value
2022-09-15T00:01:31.281Z,15.25
2022-09-15T00:03:58.013Z,14.25
2022-09-15T00:06:24.659Z,14.45
2022-09-15T00:08:51.214Z,16.15
2022-09-15T00:11:20.034Z,15.05
2022-09-15T00:13:48.618Z,15.88
2022-09-15T00:16:16.896Z,14.55
2022-09-15T00:18:44.946Z,14.50
2022-09-15T00:21:13.594Z,14.13
2022-09-15T00:23:40.455Z,15.00
2022-09-15T00:26:08.901Z,13.73
2022-09-15T00:28:35.673Z,13.57
2022-09-15T00:31:07.037Z,13.68
2022-09-15T00:33:33.906Z,14.00
2022-09-15T00:36:03.242Z,14.63
2022-09-15T00:38:32.395Z,13.75
2022-09-15T00:41:00.513Z,13.45
2022-09-15T00:43:45.417Z,12.77
2022-09-15T00:46:14.651Z,14.32
2022-09-15T00:48:45.371Z,13.77
2022-09-15T00:51:16.490Z,12.77
2022-09-15T00:53:46.084Z,13.23
2022-09-15T00:56:15.923Z,12.88
2022-09-15T00:58:52.305Z,13.50
2022-09-15T01:01:20.328Z,11.90
2022-09-15T01:03:46.950Z,12.85
2022-09-15T01:06:18.129Z,12.85
2022-09-15T01:08:51.413Z,11.82
2022-09-15T01:11:18.518Z,13.02
2022-09-15T01:13:45.426Z,11.30
2022-09-15T01:16:19.056Z,11.45
2022-09-15T01:19:01.193Z,11.45
2022-09-15T01:21:36.450Z,11.63
2022-09-15T01:24:42.361Z,12.10
2022-09-15T01:27:38.100Z,12.20
2022-09-15T01:30:08.726Z,12.15
2022-09-15T01:32:49.983Z,12.38
2022-09-15T01:35:30.291Z,11.80
2022-09-15T01:38:03.266Z,11.68
2022-09-15T01:40:35.363Z,12.10
2022-09-15T01:43:05.352Z,12.48
2022-09-15T01:45:35.111Z,12.02
2022-09-15T01:48:06.531Z,12.25
2022-09-15T01:50:37.081Z,12.73
2022-09-15T01:53:09.986Z,12.93
2022-09-15T01:55:41.408Z,11.73
2022-09-15T01:58:08.273Z,13.27
2022-09-15T02:00:41.469Z,13.75
2022-09-15T02:03:16.490Z,13.27
2022-09-15T02:05:48.438Z,13.30
2022-09-15T02:08:20.869Z,14.05
2022-09-15T02:10:57.331Z,14.27
2022-09-15T02:13:31.618Z,13.02
2022-09-15T02:16:00.378Z,13.75
2022-09-15T02:18:34.886Z,14.10
2022-09-15T02:21:07.878Z,13.48
2022-09-15T02:23:39.928Z,14.00
2022-09-15T02:26:11.071Z,14.23
2022-09-15T02:28:39.345Z,14.55
2022-09-15T02:31:10.565Z,14.85
2022-09-15T02:33:41.035Z,13.93
2022-09-15T02:36:11.427Z,14.20
2022-09-15T02:38:43.691Z,14.57
2022-09-15T02:41:10.394Z,16.08
2022-09-15T02:43:44.547Z,14.95
2022-09-15T02:46:12.588Z,15.52
2022-09-15T02:48:39.340Z,15.00
2022-09-15T02:51:06.213Z,14.55
2022-09-15T02:53:32.958Z,16.42
2022-09-15T02:55:59.643Z,15.88
2022-09-15T02:58:26.287Z,14.98
2022-09-15T03:00:52.903Z,16.30
2022-09-15T03:03:20.873Z,16.27
2022-09-15T03:05:47.718Z,16.92
2022-09-15T03:08:14.220Z,15.38
2022-09-15T03:10:40.764Z,16.35
2022-09-15T03:13:07.299Z,15.93
2022-09-15T03:15:33.891Z,14.77
2022-09-15T03:18:01.574Z,16.33
2022-09-15T03:20:29.513Z,17.77
2022-09-15T03:22:56.022Z,17.65
2022-09-15T03:25:22.797Z,19.13
2022-09-15T03:27:49.337Z,21.48
2022-09-15T03:30:15.929Z,22.38
2022-09-15T03:32:42.445Z,21.35
2022-09-15T03:35:09.774Z,21.55
2022-09-15T03:37:37.663Z,24.08
2022-09-15T03:40:05.186Z,23.20
2022-09-15T03:42:31.828Z,24.42
2022-09-15T03:44:58.439Z,23.45
2022-09-15T03:47:24.967Z,23.95
2022-09-15T03:49:51.703Z,23.55
2022-09-15T03:52:18.210Z,24.25
2022-09-15T03:54:48.338Z,22.40
2022-09-15T03:57:14.876Z,21.83
2022-09-15T03:59:41.411Z,21.30
2022-09-15T04:02:08.486Z,23.30
2022-09-15T04:04:35.545Z,20.65
2022-09-15T04:07:02.653Z,20.38
2022-09-15T04:09:29.414Z,20.25
2022-09-15T04:11:57.833Z,21.40
2022-09-15T04:14:24.477Z,20.73
2022-09-15T04:16:51.150Z,22.02
2022-09-15T04:19:17.916Z,20.95
2022-09-15T04:21:44.427Z,19.88
2022-09-15T04:24:10.963Z,19.88
2022-09-15T04:26:38.001Z,21.23
2022-09-15T04:29:12.441Z,18.90
2022-09-15T04:31:39.120Z,20.98
2022-09-15T04:34:08.258Z,21.30
2022-09-15T04:36:35.095Z,22.15
2022-09-15T04:39:01.724Z,20.10
2022-09-15T04:41:28.804Z,17.45
2022-09-15T04:43:55.511Z,19.88
2022-09-15T04:46:23.511Z,20.55
2022-09-15T04:48:50.059Z,20.50
2022-09-15T04:51:19.531Z,20.45
2022-09-15T04:53:46.736Z,20.10
2022-09-15T04:56:15.451Z,21.13
2022-09-15T04:58:43.723Z,19.88
2022-09-15T05:01:12.781Z,21.13
2022-09-15T05:03:41.127Z,19.55
2022-09-15T05:06:10.010Z,19.38
2022-09-15T05:08:37.309Z,20.42
2022-09-15T05:11:06.106Z,19.95
2022-09-15T05:13:33.766Z,19.35
2022-09-15T05:16:04.370Z,19.17
2022-09-15T05:18:31.063Z,18.20
2022-09-15T05:21:00.074Z,18.15
2022-09-15T05:23:26.650Z,18.42
2022-09-15T05:25:56.696Z,18.95
2022-09-15T05:28:23.690Z,18.95
2022-09-15T05:30:50.334Z,18.50
2022-09-15T05:33:16.905Z,18.77
2022-09-15T05:35:50.546Z,18.13
2022-09-15T05:38:18.953Z,17.77
2022-09-15T05:40:45.525Z,17.77
2022-09-15T05:43:12.352Z,16.52
2022-09-15T05:45:39.234Z,17.33
2022-09-15T05:48:05.876Z,16.67
2022-09-15T05:50:32.460Z,16.08
2022-09-15T05:52:59.008Z,16.42
2022-09-15T05:55:27.199Z,16.60
2022-09-15T05:57:54.191Z,17.27
2022-09-15T06:00:21.148Z,18.40
2022-09-15T06:02:47.978Z,18.17
2022-09-15T06:05:14.750Z,17.08
2022-09-15T06:07:41.352Z,17.85
2022-09-15T06:10:09.265Z,17.23
2022-09-15T06:12:37.414Z,17.15
2022-09-15T06:15:04.451Z,17.48
2022-09-15T06:17:31.535Z,17.10
2022-09-15T06:19:58.354Z,16.27
2022-09-15T06:22:25.014Z,16.55
2022-09-15T06:24:51.563Z,15.55
2022-09-15T06:27:18.184Z,15.63
2022-09-15T06:29:46.077Z,15.43
2022-09-15T06:32:12.748Z,15.98
2022-09-15T06:34:39.338Z,15.15
2022-09-15T06:37:05.910Z,14.30
2022-09-15T06:39:32.448Z,14.73
2022-09-15T06:42:02.667Z,14.38
2022-09-15T06:44:29.784Z,15.37
2022-09-15T06:46:57.696Z,14.20
2022-09-15T06:49:24.401Z,14.35
2022-09-15T06:51:50.940Z,14.30
2022-09-15T06:54:17.761Z,13.93
2022-09-15T06:56:44.733Z,13.73
2022-09-15T06:59:11.843Z,15.13
2022-09-15T07:01:38.621Z,13.50
2022-09-15T07:04:08.114Z,15.57
2022-09-15T07:06:34.661Z,14.10
2022-09-15T07:09:01.214Z,14.45
2022-09-15T07:11:28.477Z,13.45
2022-09-15T07:13:55.138Z,14.23
2022-09-15T07:16:22.069Z,13.18
2022-09-15T07:18:49.108Z,13.38
2022-09-15T07:21:19.600Z,13.27
2022-09-15T07:23:46.847Z,13.30
2022-09-15T07:26:15.427Z,13.00
2022-09-15T07:28:43.994Z,13.60
2022-09-15T07:31:12.307Z,13.05
2022-09-15T07:33:38.857Z,12.77
2022-09-15T07:36:06.514Z,11.65
2022-09-15T07:38:35.535Z,13.80
2022-09-15T07:41:03.387Z,11.88
2022-09-15T07:43:29.880Z,12.57
2022-09-15T07:45:56.916Z,13.38
2022-09-15T07:48:26.467Z,14.15
2022-09-15T07:50:53.433Z,15.27
2022-09-15T07:53:20.178Z,14.65
2022-09-15T07:55:52.099Z,14.52
2022-09-15T07:58:18.743Z,16.45
2022-09-15T08:00:45.532Z,15.02
2022-09-15T08:03:12.130Z,14.63
2022-09-15T08:05:42.342Z,14.73
2022-09-15T08:08:11.425Z,15.52
2022-09-15T08:10:38.591Z,16.40
2022-09-15T08:13:06.616Z,15.57
2022-09-15T08:15:35.415Z,15.32
2022-09-15T08:18:02.211Z,16.52
2022-09-15T08:20:28.749Z,15.38
2022-09-15T08:22:55.420Z,15.77
2022-09-15T08:25:21.929Z,15.63
2022-09-15T08:27:48.507Z,16.52
2022-09-15T08:30:16.562Z,14.85
2022-09-15T08:32:43.227Z,15.52
2022-09-15T08:35:09.783Z,15.50
2022-09-15T08:37:36.354Z,15.45
2022-09-15T08:40:03.341Z,14.48
2022-09-15T08:42:30.033Z,14.70
2022-09-15T08:45:00.335Z,15.65
2022-09-15T08:47:33.826Z,15.68
2022-09-15T08:50:05.418Z,16.50
2022-09-15T08:55:11.652Z,14.65
2022-09-15T08:57:38.270Z,15.27
2022-09-15T09:00:13.271Z,16.15
2022-09-15T09:02:58.088Z,15.98
2022-09-15T09:05:38.547Z,15.05
2022-09-15T09:08:30.555Z,15.75
2022-09-15T09:11:09.003Z,15.88
2022-09-15T09:13:40.484Z,15.00
2022-09-15T09:16:23.804Z,16.00
2022-09-15T09:19:03.080Z,14.10
2022-09-15T09:21:33.054Z,14.82
2022-09-15T09:24:04.930Z,15.02
2022-09-15T09:26:35.127Z,14.57
2022-09-15T09:29:06.144Z,13.73
2022-09-15T09:31:35.708Z,13.57
2022-09-15T09:34:13.765Z,13.73
2022-09-15T09:36:40.363Z,12.68
2022-09-15T09:39:12.968Z,11.95
2022-09-15T09:41:40.849Z,13.30
2022-09-15T09:44:11.147Z,14.05
2022-09-15T09:46:38.353Z,13.80
2022-09-15T09:49:13.953Z,12.85
2022-09-15T09:51:49.707Z,12.32
2022-09-15T09:54:16.251Z,11.57
2022-09-15T09:56:43.647Z,11.80
2022-09-15T09:59:39.056Z,10.90
2022-09-15T10:02:14.162Z,10.85
2022-09-15T10:04:43.368Z,10.90
2022-09-15T10:07:10.851Z,11.05
2022-09-15T10:09:38.511Z,11.25
2022-09-15T10:12:06.450Z,11.50
2022-09-15T10:14:35.648Z,10.23
2022-09-15T10:17:06.315Z,9.43
2022-09-15T10:19:36.493Z,9.30
2022-09-15T10:22:05.028Z,8.93
2022-09-15T10:24:34.450Z,8.93
2022-09-15T10:27:15.889Z,8.43
2022-09-15T10:29:42.669Z,8.93
2022-09-15T10:32:27.232Z,8.93
2022-09-15T10:35:02.578Z,9.35
2022-09-15T10:37:34.166Z,9.13
2022-09-15T10:40:09.206Z,8.23
2022-09-15T10:42:50.538Z,8.95
2022-09-15T10:45:32.746Z,9.10
2022-09-15T10:48:17.354Z,9.57
2022-09-15T10:50:54.673Z,8.35
2022-09-15T10:53:37.115Z,6.82
2022-09-15T10:56:13.438Z,6.32
2022-09-15T10:58:50.664Z,6.20
2022-09-15T11:01:31.337Z,6.20
2022-09-15T11:04:12.328Z,6.32
2022-09-15T11:06:47.723Z,7.25
2022-09-15T11:09:20.978Z,5.93
2022-09-15T11:11:59.553Z,6.63
2022-09-15T11:14:41.662Z,6.45
2022-09-15T11:17:23.626Z,5.85
2022-09-15T11:20:30.354Z,6.10
2022-09-15T11:23:03.679Z,5.53
2022-09-15T11:25:34.572Z,5.07
2022-09-15T11:28:09.160Z,6.03
2022-09-15T11:30:41.660Z,5.43
2022-09-15T11:33:18.557Z,5.93
2022-09-15T11:35:47.911Z,6.03
2022-09-15T11:38:30.581Z,6.30
2022-09-15T11:41:10.271Z,5.97
2022-09-15T11:43:43.870Z,6.00
2022-09-15T11:46:15.052Z,5.13
2022-09-15T11:48:45.319Z,5.55
2022-09-15T11:51:16.080Z,5.15
2022-09-15T11:53:50.038Z,5.32
2022-09-15T11:56:24.397Z,5.38
2022-09-15T11:59:02.473Z,4.43
2022-09-15T12:01:32.319Z,4.88
2022-09-15T12:04:03.094Z,4.72
2022-09-15T12:06:45.811Z,5.60
2022-09-15T12:09:15.878Z,4.38
2022-09-15T12:11:46.308Z,2.30
2022-09-15T12:14:16.397Z,1.90
2022-09-15T12:16:44.138Z,1.90
2022-09-15T12:19:18.291Z,1.63
2022-09-15T12:21:53.792Z,1.92
2022-09-15T12:24:34.258Z,2.03
2022-09-15T12:27:02.535Z,1.70
2022-09-15T12:29:31.490Z,1.70
2022-09-15T12:32:20.192Z,2.00
2022-09-15T12:35:02.143Z,1.40
2022-09-15T12:37:39.822Z,1.58
2022-09-15T12:40:26.696Z,1.60
2022-09-15T12:42:54.833Z,1.40
2022-09-15T12:45:24.633Z,1.50
2022-09-15T12:47:54.993Z,1.40
2022-09-15T12:50:25.539Z,1.92
2022-09-15T12:52:54.430Z,1.80
2022-09-15T12:55:24.270Z,1.70
2022-09-15T12:57:58.441Z,2.13
2022-09-15T13:00:34.366Z,2.40
2022-09-15T13:03:01.970Z,1.60
2022-09-15T13:06:11.398Z,2.17
2022-09-15T13:08:49.204Z,1.90
2022-09-15T13:11:19.721Z,1.65
2022-09-15T13:13:51.599Z,1.90
2022-09-15T13:16:25.902Z,2.15
2022-09-15T13:19:03.619Z,2.25
2022-09-15T13:21:31.681Z,2.70
2022-09-15T13:23:59.149Z,1.85
2022-09-15T13:26:28.275Z,1.70
2022-09-15T13:28:57.808Z,2.03
2022-09-15T13:31:35.930Z,2.05
2022-09-15T13:40:48.434Z,1.75
2022-09-15T13:43:42.163Z,1.75
2022-09-15T13:46:21.513Z,2.00
2022-09-15T13:49:13.086Z,2.20
2022-09-15T13:51:43.496Z,1.70
2022-09-15T13:54:16.539Z,1.63
2022-09-15T13:56:43.822Z,1.58
2022-09-15T13:59:17.355Z,1.48
2022-09-15T14:01:45.806Z,1.80
2022-09-15T14:04:15.881Z,1.80
2022-09-15T14:06:45.159Z,2.17
2022-09-15T14:09:15.676Z,1.90
2022-09-15T14:11:43.732Z,1.60
2022-09-15T14:14:32.062Z,1.25
2022-09-15T14:17:00.127Z,1.70
2022-09-15T14:19:30.758Z,1.60
2022-09-15T14:21:58.658Z,1.25
2022-09-15T14:24:27.841Z,1.20
2022-09-15T14:26:54.637Z,1.30
2022-09-15T14:29:23.474Z,1.50
2022-09-15T14:31:50.230Z,2.40
2022-09-15T14:34:21.258Z,1.50
2022-09-15T14:37:00.421Z,1.58
2022-09-15T14:39:26.974Z,1.40
2022-09-15T14:41:53.574Z,1.48
2022-09-15T14:47:12.394Z,1.45
2022-09-15T14:49:40.270Z,2.08
2022-09-15T14:52:22.805Z,1.15
2022-09-15T14:54:50.411Z,1.30
2022-09-15T14:57:22.806Z,1.45
2022-09-15T14:59:55.197Z,1.48
2022-09-15T15:02:28.977Z,1.60
2022-09-15T15:05:04.814Z,1.52
2022-09-15T15:07:35.805Z,1.45
2022-09-15T15:10:05.930Z,1.40
2022-09-15T15:12:35.905Z,1.80
2022-09-15T15:15:03.181Z,1.70
2022-09-15T15:17:35.593Z,1.48
2022-09-15T15:20:14.195Z,1.58
2022-09-15T15:22:42.165Z,1.65
2022-09-15T15:25:24.575Z,1.40
2022-09-15T15:27:52.374Z,1.60
2022-09-15T15:30:46.025Z,1.25
2022-09-15T15:33:19.854Z,1.40
2022-09-15T15:36:00.925Z,1.38
2022-09-15T15:38:27.661Z,1.33
2022-09-15T15:41:00.422Z,1.52
2022-09-15T15:43:27.213Z,1.50
2022-09-15T15:45:55.284Z,1.60
2022-09-15T15:48:21.872Z,1.60
2022-09-15T15:50:49.715Z,1.58
2022-09-15T15:53:16.538Z,1.40
2022-09-15T15:55:43.831Z,1.50
2022-09-15T15:58:11.331Z,1.45
2022-09-15T16:00:42.348Z,1.90
2022-09-15T16:03:08.937Z,1.92
2022-09-15T16:05:36.124Z,1.75
2022-09-15T16:08:07.129Z,1.40
2022-09-15T16:10:39.889Z,2.40
2022-09-15T16:13:06.707Z,1.58
2022-09-15T16:15:33.234Z,1.80
2022-09-15T16:18:00.170Z,1.70
2022-09-15T16:20:26.718Z,1.80
2022-09-15T16:22:53.315Z,2.38
2022-09-15T16:25:31.136Z,1.80
2022-09-15T16:27:57.692Z,1.90
2022-09-15T16:30:24.179Z,5.38
2022-09-15T16:32:50.701Z,3.85
2022-09-15T16:35:26.377Z,2.28
2022-09-15T16:37:53.149Z,1.75
2022-09-15T16:40:19.704Z,4.45
2022-09-15T16:42:48.402Z,2.40
2022-09-15T16:45:23.295Z,2.92
2022-09-15T16:47:49.844Z,1.50
2022-09-15T16:50:16.566Z,1.60
2022-09-15T16:52:43.373Z,1.60
2022-09-15T16:55:23.045Z,1.55
2022-09-15T16:57:51.177Z,1.50
2022-09-15T17:00:17.855Z,1.77
2022-09-15T17:02:44.539Z,1.80
2022-09-15T17:05:20.436Z,1.30
2022-09-15T17:07:47.089Z,2.00
2022-09-15T17:10:13.775Z,2.80
2022-09-15T17:12:40.534Z,4.50
2022-09-15T17:15:24.188Z,7.07
2022-09-15T17:17:50.965Z,3.88
2022-09-15T17:20:18.031Z,3.50
2022-09-15T17:22:44.918Z,5.75
2022-09-15T17:25:20.001Z,1.90
2022-09-15T17:27:46.579Z,2.30
2022-09-15T17:30:13.814Z,1.95
2022-09-15T17:32:42.264Z,3.40
2022-09-15T17:35:15.656Z,1.63
2022-09-15T17:37:42.532Z,2.72
2022-09-15T17:40:10.263Z,4.47
2022-09-15T17:42:36.941Z,9.57
2022-09-15T17:45:14.070Z,2.92
2022-09-15T17:47:42.049Z,3.55
2022-09-15T17:50:09.580Z,2.38
2022-09-15T17:52:36.172Z,8.68
2022-09-15T17:55:10.147Z,3.15
2022-09-15T17:57:36.651Z,20.58
2022-09-15T18:00:04.588Z,5.57
2022-09-15T18:02:31.984Z,5.57
2022-09-15T18:04:59.966Z,2.03
2022-09-15T18:07:26.602Z,4.70
2022-09-15T18:09:53.134Z,2.97
2022-09-15T18:12:19.990Z,2.63
2022-09-15T18:14:46.466Z,4.00
2022-09-15T18:17:13.040Z,2.28
2022-09-15T18:19:39.546Z,4.32
2022-09-15T18:22:08.931Z,5.25
2022-09-15T18:24:35.426Z,2.97
2022-09-15T18:27:02.013Z,6.45
2022-09-15T18:29:28.496Z,2.72
2022-09-15T18:31:55.036Z,2.22
2022-09-15T18:34:21.551Z,1.50
2022-09-15T18:36:48.147Z,3.88
2022-09-15T18:39:16.018Z,3.00
2022-09-15T18:41:42.646Z,2.15
2022-09-15T18:44:09.183Z,6.15
2022-09-15T18:46:35.834Z,3.67
2022-09-15T18:49:02.383Z,1.83
2022-09-15T18:51:34.884Z,1.73
2022-09-15T18:54:16.947Z,4.78
2022-09-15T18:56:43.507Z,6.65
2022-09-15T18:59:10.410Z,18.80
2022-09-15T19:01:37.127Z,5.60
2022-09-15T19:04:03.810Z,1.95
2022-09-15T19:06:30.282Z,1.70
2022-09-15T19:08:57.188Z,1.63
2022-09-15T19:11:28.813Z,1.23
2022-09-15T19:13:55.715Z,1.40
2022-09-15T19:16:22.956Z,1.50
2022-09-15T19:18:52.793Z,1.10
2022-09-15T19:21:21.089Z,1.48
2022-09-15T19:23:50.565Z,1.33
2022-09-15T19:26:17.128Z,1.35
2022-09-15T19:28:45.792Z,1.30
2022-09-15T19:31:13.017Z,1.15
2022-09-15T19:33:39.875Z,1.55
2022-09-15T19:36:27.445Z,1.40
2022-09-15T19:38:54.473Z,1.35
2022-09-15T19:41:21.264Z,0.90
2022-09-15T19:43:49.447Z,1.40
2022-09-15T19:46:18.979Z,1.30
2022-09-15T19:48:49.349Z,1.23
2022-09-15T19:51:24.674Z,1.30
2022-09-15T19:53:54.680Z,1.15
2022-09-15T19:56:22.937Z,1.38
2022-09-15T19:58:50.989Z,1.15
2022-09-15T20:01:19.884Z,1.10
2022-09-15T20:03:46.437Z,1.30
2022-09-15T20:06:13.151Z,1.20
2022-09-15T20:08:39.663Z,1.60
2022-09-15T20:11:07.528Z,1.30
2022-09-15T20:13:34.805Z,1.20
2022-09-15T20:16:03.277Z,1.30
2022-09-15T20:18:30.210Z,1.00
2022-09-15T20:20:57.158Z,1.00
2022-09-15T20:23:23.795Z,1.30
2022-09-15T20:25:57.683Z,1.25
2022-09-15T20:28:24.851Z,1.13
2022-09-15T20:31:04.538Z,1.25
2022-09-15T20:33:31.743Z,1.00
2022-09-15T20:36:00.613Z,1.00
2022-09-15T20:38:27.555Z,1.20
2022-09-15T20:40:54.487Z,1.20
2022-09-15T20:43:21.163Z,1.15
2022-09-15T20:45:55.368Z,1.83
2022-09-15T20:48:23.599Z,1.35
2022-09-15T20:50:50.137Z,1.10
2022-09-15T20:53:16.718Z,0.90
2022-09-15T20:55:48.724Z,1.08
2022-09-15T20:58:15.483Z,0.98
2022-09-15T21:00:42.051Z,1.02
2022-09-15T21:03:08.634Z,1.45
2022-09-15T21:05:36.484Z,1.15
2022-09-15T21:08:03.095Z,1.67
2022-09-15T21:10:29.604Z,1.00
2022-09-15T21:12:56.166Z,1.30
2022-09-15T21:15:22.708Z,0.90
2022-09-15T21:17:49.271Z,1.15
2022-09-15T21:20:16.051Z,1.33
2022-09-15T21:22:43.981Z,1.00
2022-09-15T21:25:10.476Z,0.88
2022-09-15T21:27:37.302Z,1.08
2022-09-15T21:30:04.961Z,1.27
2022-09-15T21:32:32.187Z,1.40
2022-09-15T21:34:58.726Z,0.93
2022-09-15T21:37:26.067Z,1.30
2022-09-15T21:39:54.051Z,1.92
2022-09-15T21:42:20.681Z,1.00
2022-09-15T21:44:47.177Z,1.70
2022-09-15T21:47:13.747Z,1.27
2022-09-15T21:49:40.241Z,1.23
2022-09-15T21:52:06.805Z,1.20
2022-09-15T21:54:33.318Z,1.10
2022-09-15T21:57:01.273Z,1.30
2022-09-15T21:59:27.943Z,0.95
2022-09-15T22:01:54.530Z,1.00
2022-09-15T22:04:21.302Z,1.30
2022-09-15T22:06:47.886Z,1.52
2022-09-15T22:09:17.023Z,1.10
2022-09-15T22:11:44.067Z,1.10
2022-09-15T22:14:11.970Z,1.30
2022-09-15T22:16:40.135Z,1.58
2022-09-15T22:19:07.793Z,1.13
2022-09-15T22:21:34.851Z,0.80
2022-09-15T22:24:02.439Z,1.17
2022-09-15T22:26:30.908Z,1.08
2022-09-15T22:28:59.305Z,1.40
2022-09-15T22:31:28.193Z,0.98
2022-09-15T22:33:56.513Z,1.13
2022-09-15T22:36:29.325Z,1.40
2022-09-15T22:38:57.834Z,0.90
2022-09-15T22:41:24.506Z,0.90
2022-09-15T22:43:51.292Z,1.20
2022-09-15T22:46:19.146Z,1.20
2022-09-15T22:48:47.367Z,1.10
2022-09-15T22:51:14.386Z,1.10
2022-09-15T22:53:41.395Z,1.17
2022-09-15T22:56:10.743Z,1.45
2022-09-15T22:58:37.631Z,0.95
2022-09-15T23:01:05.284Z,1.05
2022-09-15T23:03:31.941Z,1.10
2022-09-15T23:06:00.791Z,1.00
2022-09-15T23:08:27.429Z,1.08
2022-09-15T23:11:00.928Z,1.10
2022-09-15T23:13:27.477Z,0.80
2022-09-15T23:15:53.999Z,1.10
2022-09-15T23:18:20.673Z,0.95
2022-09-15T23:20:47.182Z,1.45
2022-09-15T23:23:15.137Z,1.17
2022-09-15T23:25:41.638Z,1.10
2022-09-15T23:28:08.166Z,1.33
2022-09-15T23:30:34.650Z,0.95
2022-09-15T23:33:01.233Z,1.17
2022-09-15T23:35:27.697Z,1.10
2022-09-15T23:37:54.219Z,0.90
2022-09-15T23:40:22.109Z,1.30
2022-09-15T23:42:48.755Z,1.10
2022-09-15T23:45:15.387Z,1.00
2022-09-15T23:47:41.933Z,1.73
2022-09-15T23:50:09.359Z,0.93
2022-09-15T23:52:35.979Z,1.20
2022-09-15T23:55:02.501Z,1.20
2022-09-15T23:57:30.492Z,1.05
2022-09-15T23:59:56.977Z,1.00
